aviador You're here:

CYYT Decoded Metar

ST. JOHN'S in NL, CANADA
Report Time2017-09-20 16:00:00
UTC Time2017-09-20 16:23:28
Flight Rules vfr VFR
Wind250° at 19 Gusting to 29 kt
W.Decomp.*RWY 29: 18.0 kt HW 6.2 kt LCW
RWY 34: 6.8 kt HW 17.7 kt LCW
RWY 20: 6.2 kt HW 18.0 kt RCW
W.Rank250° ranks 2
Current wind is above 250° avg. (15.2)
Visibility9999 m
Phenomena:N/A
Clouds:Few 028 Hf
Broken 150 Hf
Expected CloudBase > 2,800 ft AGL from Temp-Dew spread
Ceiling15,000 ft
Temp20°C (ISA +6)
Dew Point13°C (64% RH)
AAT14.1°C
QNH1021 hPa
Density Alt1,083 ft
Elevation459 ft
Report Wrong Elevation
Raw Report
CYYT 201600Z 25019G29KT 15SM FEW028 BKN150 20/13 A3014 RMK CU1AC6
ACC ASOCTD SLP208 DENSITY ALT 900FT=

Extra information for CYYT:More info

Metar Taf Metar & Taf Last 4 Metars F.Rules Stats Wind Profile Meteogram Temp Stats Airport Information Weather charts Add Link Nearby VenuesMetar ALERT Operation Metar Decoded Social comments